createdAt,value
2017-06-19T00:01:16.620Z,11.63
2017-06-19T00:03:43.730Z,12.07
2017-06-19T00:06:10.118Z,10.83
2017-06-19T00:08:36.498Z,11.50
2017-06-19T00:11:02.882Z,10.90
2017-06-19T00:13:29.285Z,10.80
2017-06-19T00:15:56.419Z,10.30
2017-06-19T00:18:22.802Z,11.23
2017-06-19T00:20:55.509Z,11.87
2017-06-19T00:23:28.020Z,10.90
2017-06-19T00:25:54.389Z,10.20
2017-06-19T00:28:20.763Z,10.90
2017-06-19T00:30:47.175Z,12.27
2017-06-19T00:33:13.551Z,11.17
2017-06-19T00:35:39.916Z,11.33
2017-06-19T00:38:06.291Z,11.80
2017-06-19T00:40:33.419Z,12.07
2017-06-19T00:43:00.677Z,12.23
2017-06-19T00:45:27.109Z,12.90
2017-06-19T00:47:53.518Z,13.63
2017-06-19T00:50:19.914Z,12.77
2017-06-19T00:52:46.292Z,12.77
2017-06-19T00:55:12.773Z,14.30
2017-06-19T00:57:39.915Z,16.23
2017-06-19T01:00:07.045Z,15.03
2017-06-19T01:02:34.178Z,16.50
2017-06-19T01:05:00.567Z,14.93
2017-06-19T01:07:27.809Z,15.77
2017-06-19T01:09:54.624Z,15.83
2017-06-19T01:12:21.002Z,15.60
2017-06-19T01:14:47.375Z,14.70
2017-06-19T01:17:13.755Z,16.37
2017-06-19T01:19:40.155Z,16.40
2017-06-19T01:22:06.546Z,15.90
2017-06-19T01:24:32.980Z,15.90
2017-06-19T01:26:59.338Z,16.17
2017-06-19T01:29:25.727Z,16.60
2017-06-19T01:31:52.163Z,17.10
2017-06-19T01:34:18.540Z,20.80
2017-06-19T01:36:44.965Z,20.43
2017-06-19T01:39:11.358Z,20.73
2017-06-19T01:41:37.772Z,21.40
2017-06-19T01:44:04.199Z,22.70
2017-06-19T01:46:30.631Z,22.90
2017-06-19T01:48:57.013Z,23.60
2017-06-19T01:51:23.446Z,22.90
2017-06-19T01:53:49.903Z,27.70
2017-06-19T01:56:16.306Z,25.63
2017-06-19T01:58:42.699Z,27.50
2017-06-19T02:01:09.116Z,25.83
2017-06-19T02:03:36.260Z,29.07
2017-06-19T02:06:03.502Z,27.83
2017-06-19T02:08:30.637Z,27.10
2017-06-19T02:10:57.002Z,24.67
2017-06-19T02:13:24.104Z,25.37
2017-06-19T02:15:50.473Z,25.17
2017-06-19T02:18:16.845Z,23.07
2017-06-19T02:20:43.250Z,25.67
2017-06-19T02:23:10.347Z,22.70
2017-06-19T02:25:36.732Z,24.03
2017-06-19T02:28:03.112Z,23.30
2017-06-19T02:30:29.527Z,22.30
2017-06-19T02:32:55.914Z,22.60
2017-06-19T02:35:23.036Z,21.13
2017-06-19T02:37:49.444Z,21.53
2017-06-19T02:40:15.857Z,22.00
2017-06-19T02:42:42.243Z,20.70
2017-06-19T02:45:08.615Z,21.10
2017-06-19T02:47:35.004Z,20.20
2017-06-19T02:50:01.388Z,19.50
2017-06-19T02:52:27.764Z,18.30
2017-06-19T02:54:54.153Z,19.30
2017-06-19T02:57:20.563Z,20.60
2017-06-19T02:59:47.676Z,18.73
2017-06-19T03:02:14.059Z,18.70
2017-06-19T03:04:40.480Z,19.07
2017-06-19T03:07:06.872Z,19.60
2017-06-19T03:09:33.414Z,18.27
2017-06-19T03:12:01.014Z,19.63
2017-06-19T03:14:27.419Z,20.77
2017-06-19T03:16:53.802Z,18.00
2017-06-19T03:19:20.990Z,18.83
2017-06-19T03:21:47.388Z,18.97
2017-06-19T03:24:13.813Z,20.50
2017-06-19T03:26:40.230Z,18.23
2017-06-19T03:29:06.661Z,18.60
2017-06-19T03:31:33.048Z,17.33
2017-06-19T03:34:01.208Z,17.00
2017-06-19T03:36:27.605Z,20.10
2017-06-19T03:38:54.061Z,19.23
2017-06-19T03:41:20.465Z,19.43
2017-06-19T03:43:46.879Z,19.23
2017-06-19T03:46:13.299Z,17.57
2017-06-19T03:48:40.448Z,18.90
2017-06-19T03:51:07.574Z,20.97
2017-06-19T03:53:34.731Z,19.67
2017-06-19T03:56:01.135Z,21.03
2017-06-19T03:58:27.530Z,19.97
2017-06-19T04:00:54.631Z,19.40
2017-06-19T04:03:21.058Z,19.30
2017-06-19T04:05:47.462Z,19.77
2017-06-19T04:08:13.847Z,19.93
2017-06-19T04:10:40.968Z,19.93
2017-06-19T04:13:08.170Z,18.60
2017-06-19T04:15:34.561Z,19.77
2017-06-19T04:18:01.722Z,20.17
2017-06-19T04:20:28.887Z,19.63
2017-06-19T04:22:55.470Z,17.70
2017-06-19T04:25:21.894Z,16.70
2017-06-19T04:27:48.286Z,18.57
2017-06-19T04:30:15.459Z,17.50
2017-06-19T04:32:41.830Z,15.70
2017-06-19T04:35:08.234Z,17.20
2017-06-19T04:37:34.619Z,17.73
2017-06-19T04:40:01.025Z,17.77
2017-06-19T04:42:27.407Z,17.63
2017-06-19T04:44:53.835Z,17.47
2017-06-19T04:47:20.216Z,16.77
2017-06-19T04:49:46.621Z,16.70
2017-06-19T04:52:13.071Z,18.40
2017-06-19T04:54:39.467Z,17.50
2017-06-19T04:57:05.867Z,16.37
2017-06-19T04:59:32.393Z,18.90
2017-06-19T05:01:58.959Z,19.93
2017-06-19T05:04:26.211Z,17.63
2017-06-19T05:06:52.627Z,18.30
2017-06-19T05:09:19.014Z,16.17
2017-06-19T05:11:45.494Z,17.93
2017-06-19T05:14:12.627Z,16.90
2017-06-19T05:16:39.034Z,16.57
2017-06-19T05:19:05.485Z,18.47
2017-06-19T05:21:31.867Z,18.37
2017-06-19T05:23:58.257Z,18.83
2017-06-19T05:26:24.667Z,16.87
2017-06-19T05:28:51.039Z,16.30
2017-06-19T05:31:17.402Z,18.43
2017-06-19T05:33:43.791Z,17.43
2017-06-19T05:36:10.214Z,18.20
2017-06-19T05:38:36.619Z,19.57
2017-06-19T05:41:03.037Z,18.53
2017-06-19T05:43:29.939Z,20.60
2017-06-19T05:45:57.202Z,21.03
2017-06-19T05:48:23.614Z,20.17
2017-06-19T05:50:50.052Z,20.53
2017-06-19T05:53:16.451Z,18.40
2017-06-19T05:55:42.920Z,20.57
2017-06-19T05:58:09.351Z,18.53
2017-06-19T06:00:35.779Z,19.40
2017-06-19T06:03:02.197Z,17.50
2017-06-19T06:05:28.655Z,17.87
2017-06-19T06:07:55.102Z,19.03
2017-06-19T06:10:22.243Z,17.70
2017-06-19T06:12:48.663Z,17.27
2017-06-19T06:15:15.044Z,16.87
2017-06-19T06:17:41.454Z,17.10
2017-06-19T06:20:07.867Z,16.33
2017-06-19T06:22:35.023Z,17.67
2017-06-19T06:25:01.387Z,18.00
2017-06-19T06:27:27.778Z,17.13
2017-06-19T06:29:54.153Z,17.77
2017-06-19T06:32:20.518Z,18.63
2017-06-19T06:34:46.922Z,19.20
2017-06-19T06:37:13.401Z,17.60
2017-06-19T06:39:40.571Z,19.03
2017-06-19T06:42:07.689Z,21.70
2017-06-19T06:44:34.074Z,22.27
2017-06-19T06:47:00.472Z,22.07
2017-06-19T06:49:26.891Z,20.03
2017-06-19T06:51:53.323Z,22.80
2017-06-19T06:54:19.728Z,20.13
2017-06-19T06:56:46.154Z,20.57
2017-06-19T06:59:12.610Z,20.70
2017-06-19T07:01:39.005Z,22.37
2017-06-19T07:04:05.377Z,20.77
2017-06-19T07:06:31.786Z,18.37
2017-06-19T07:08:58.339Z,17.47
2017-06-19T07:11:24.984Z,16.97
2017-06-19T07:13:51.397Z,15.57
2017-06-19T07:16:17.787Z,15.50
2017-06-19T07:18:44.921Z,17.23
2017-06-19T07:21:11.314Z,16.43
2017-06-19T07:23:37.713Z,14.47
2017-06-19T07:26:04.098Z,15.10
2017-06-19T07:28:30.498Z,15.60
2017-06-19T07:30:56.878Z,13.93
2017-06-19T07:33:23.261Z,13.33
2017-06-19T07:35:49.638Z,16.47
2017-06-19T07:38:16.778Z,14.50
2017-06-19T07:40:43.247Z,17.50
2017-06-19T07:43:09.633Z,17.53
2017-06-19T07:45:36.027Z,15.50
2017-06-19T07:48:02.523Z,15.93
2017-06-19T07:50:28.928Z,16.07
2017-06-19T07:52:56.246Z,17.43
2017-06-19T07:55:22.731Z,19.30
2017-06-19T07:57:49.128Z,15.70
2017-06-19T08:00:15.523Z,18.03
2017-06-19T08:02:42.106Z,18.13
2017-06-19T08:05:08.486Z,18.20
2017-06-19T08:07:34.887Z,17.33
2017-06-19T08:10:01.280Z,16.73
2017-06-19T08:12:27.660Z,18.47
2017-06-19T08:14:54.023Z,16.87
2017-06-19T08:17:20.453Z,17.43
2017-06-19T08:19:46.819Z,16.50
2017-06-19T08:22:13.207Z,17.67
2017-06-19T08:24:39.583Z,17.40
2017-06-19T08:27:06.034Z,11.90
2017-06-19T08:29:32.428Z,8.60
2017-06-19T08:31:58.823Z,14.17
2017-06-19T08:34:25.960Z,14.53
2017-06-19T08:36:52.363Z,11.97
2017-06-19T08:39:18.739Z,12.37
2017-06-19T08:41:45.110Z,11.70
2017-06-19T08:44:11.535Z,11.63
2017-06-19T08:46:37.910Z,12.80
2017-06-19T08:49:04.338Z,8.47
2017-06-19T08:51:30.742Z,11.37
2017-06-19T08:53:57.131Z,11.17
2017-06-19T08:56:23.511Z,10.93
2017-06-19T08:58:49.916Z,11.10
2017-06-19T09:01:16.414Z,12.97
2017-06-19T09:03:42.854Z,11.20
2017-06-19T09:06:09.238Z,10.57
2017-06-19T09:08:35.640Z,10.93
2017-06-19T09:11:02.107Z,11.23
2017-06-19T09:13:28.489Z,10.30
2017-06-19T09:15:55.897Z,8.03
2017-06-19T09:18:22.326Z,7.97
2017-06-19T09:20:48.722Z,8.97
2017-06-19T09:23:15.855Z,7.43
2017-06-19T09:25:42.273Z,10.03
2017-06-19T09:28:08.670Z,10.70
2017-06-19T09:30:35.111Z,9.37
2017-06-19T09:33:01.507Z,9.60
2017-06-19T09:35:28.659Z,10.40
2017-06-19T09:37:55.074Z,8.63
2017-06-19T09:40:22.219Z,6.80
2017-06-19T09:42:48.604Z,6.80
2017-06-19T09:45:14.998Z,8.70
2017-06-19T09:47:41.402Z,7.90
2017-06-19T09:50:08.569Z,8.80
2017-06-19T09:52:34.984Z,7.40
2017-06-19T09:55:01.397Z,9.30
2017-06-19T09:57:27.840Z,9.77
2017-06-19T09:59:54.351Z,7.47
2017-06-19T10:02:20.726Z,7.87
2017-06-19T10:04:47.120Z,7.60
2017-06-19T10:07:13.528Z,9.10
2017-06-19T10:09:39.952Z,7.50
2017-06-19T10:12:06.311Z,7.13
2017-06-19T10:14:32.707Z,7.50
2017-06-19T10:16:59.117Z,6.97
2017-06-19T10:19:25.515Z,7.40
2017-06-19T10:21:51.901Z,8.63
2017-06-19T10:24:18.318Z,7.70
2017-06-19T10:26:44.703Z,7.77
2017-06-19T10:29:11.103Z,7.50
2017-06-19T10:31:37.523Z,7.50
2017-06-19T10:34:03.980Z,7.30
2017-06-19T10:36:30.381Z,8.10
2017-06-19T10:38:57.536Z,7.90
2017-06-19T10:41:24.697Z,8.00
2017-06-19T10:43:51.092Z,5.97
2017-06-19T10:46:17.529Z,7.20
2017-06-19T10:48:44.688Z,7.10
2017-06-19T10:51:11.080Z,7.00
2017-06-19T10:53:37.501Z,6.37
2017-06-19T10:56:03.915Z,6.73
2017-06-19T10:58:30.315Z,6.37
2017-06-19T11:00:57.469Z,6.23
2017-06-19T11:03:23.870Z,6.90
2017-06-19T11:05:50.300Z,7.07
2017-06-19T11:08:16.690Z,7.20
2017-06-19T11:10:43.066Z,7.40
2017-06-19T11:13:09.491Z,7.10
2017-06-19T11:15:35.878Z,6.93
2017-06-19T11:18:02.302Z,6.67
2017-06-19T11:20:29.536Z,7.50
2017-06-19T11:22:55.954Z,7.93
2017-06-19T11:25:22.351Z,6.83
2017-06-19T11:27:48.771Z,7.10
2017-06-19T11:30:15.149Z,6.40
2017-06-19T11:32:41.517Z,6.10
2017-06-19T11:35:08.656Z,6.00
2017-06-19T11:37:35.071Z,5.93
2017-06-19T11:40:01.460Z,6.70
2017-06-19T11:42:28.203Z,6.00
2017-06-19T11:44:54.627Z,6.17
2017-06-19T11:47:21.049Z,6.33
2017-06-19T11:49:48.399Z,7.13
2017-06-19T11:52:14.826Z,6.57
2017-06-19T11:54:42.030Z,6.33
2017-06-19T11:57:08.467Z,6.97
2017-06-19T11:59:34.861Z,7.37
2017-06-19T12:02:01.275Z,5.47
2017-06-19T12:04:27.668Z,6.90
2017-06-19T12:06:54.119Z,8.90
2017-06-19T12:09:21.264Z,6.47
2017-06-19T12:11:47.668Z,6.57
2017-06-19T12:14:14.094Z,6.10
2017-06-19T12:16:40.488Z,6.97
2017-06-19T12:19:06.898Z,6.10
2017-06-19T12:21:34.056Z,6.53
2017-06-19T12:24:00.468Z,6.60
2017-06-19T12:26:26.859Z,6.70
2017-06-19T12:28:53.286Z,7.27
2017-06-19T12:31:19.689Z,7.00
2017-06-19T12:33:46.090Z,7.97
2017-06-19T12:36:12.496Z,7.43
2017-06-19T12:38:38.910Z,7.80
2017-06-19T12:41:05.335Z,7.23
2017-06-19T12:43:31.758Z,7.57
2017-06-19T12:45:58.187Z,6.97
2017-06-19T12:48:24.593Z,7.00
2017-06-19T12:50:51.018Z,6.67
2017-06-19T12:53:18.167Z,6.47
2017-06-19T12:55:44.567Z,7.63
2017-06-19T12:58:10.970Z,7.87
2017-06-19T13:00:37.349Z,6.60
2017-06-19T13:03:03.748Z,7.47
2017-06-19T13:05:30.150Z,7.70
2017-06-19T13:07:56.609Z,7.60
2017-06-19T13:10:22.993Z,8.07
2017-06-19T13:12:50.178Z,7.30
2017-06-19T13:15:16.607Z,8.30
2017-06-19T13:17:43.054Z,7.67
2017-06-19T13:20:09.478Z,7.23
2017-06-19T13:22:35.879Z,7.93
2017-06-19T13:25:02.267Z,7.20
2017-06-19T13:27:28.663Z,6.93
2017-06-19T13:29:55.100Z,6.90
2017-06-19T13:32:22.248Z,8.00
2017-06-19T13:34:48.672Z,7.20
2017-06-19T13:37:15.047Z,7.60
2017-06-19T13:39:41.427Z,7.50
2017-06-19T13:42:08.674Z,7.73
2017-06-19T13:44:35.041Z,7.60
2017-06-19T13:47:01.451Z,7.97
2017-06-19T13:49:28.580Z,8.30
2017-06-19T13:51:54.962Z,7.90
2017-06-19T13:54:22.985Z,8.50
2017-06-19T13:56:49.366Z,8.40
2017-06-19T13:59:16.151Z,8.30
2017-06-19T14:01:42.590Z,8.50
2017-06-19T14:04:08.984Z,8.43
2017-06-19T14:06:35.357Z,8.23
2017-06-19T14:09:01.762Z,7.30
2017-06-19T14:11:28.161Z,7.17
2017-06-19T14:13:54.588Z,7.63
2017-06-19T14:16:20.999Z,7.93
2017-06-19T14:18:48.159Z,7.40
2017-06-19T14:21:14.557Z,8.30
2017-06-19T14:23:40.945Z,7.90
2017-06-19T14:26:07.372Z,7.17
2017-06-19T14:28:33.754Z,7.60
2017-06-19T14:31:00.156Z,7.90
2017-06-19T14:33:26.578Z,7.67
2017-06-19T14:35:53.127Z,7.33
2017-06-19T14:38:19.517Z,6.70
2017-06-19T14:40:45.927Z,7.03
2017-06-19T14:43:19.357Z,7.10
2017-06-19T14:45:45.793Z,7.40
2017-06-19T14:48:12.181Z,6.90
2017-06-19T14:50:39.328Z,7.77
2017-06-19T14:53:05.737Z,6.40
2017-06-19T14:55:32.111Z,6.77
2017-06-19T14:57:59.258Z,7.00
2017-06-19T15:00:26.426Z,7.27
2017-06-19T15:02:52.859Z,6.93
2017-06-19T15:05:19.274Z,6.40
2017-06-19T15:07:45.728Z,6.67
2017-06-19T15:10:12.165Z,6.17
2017-06-19T15:12:38.869Z,7.00
2017-06-19T15:15:05.303Z,6.50
2017-06-19T15:17:31.711Z,6.23
2017-06-19T15:19:58.105Z,6.83
2017-06-19T15:22:30.782Z,6.30
2017-06-19T15:24:57.164Z,6.33
2017-06-19T15:27:23.576Z,5.67
2017-06-19T15:29:49.994Z,5.30
2017-06-19T15:32:16.395Z,5.30
2017-06-19T15:34:43.562Z,4.60
2017-06-19T15:37:09.964Z,6.70
2017-06-19T15:39:37.096Z,4.90
2017-06-19T15:42:03.502Z,4.13
2017-06-19T15:44:29.957Z,4.63
2017-06-19T15:46:56.824Z,5.00
2017-06-19T15:49:23.937Z,5.30
2017-06-19T15:51:50.321Z,5.37
2017-06-19T15:54:16.717Z,5.37
2017-06-19T15:56:43.144Z,5.90
2017-06-19T15:59:09.547Z,5.03
2017-06-19T16:01:35.967Z,5.00
2017-06-19T16:04:02.374Z,5.10
2017-06-19T16:06:28.786Z,5.03
2017-06-19T16:08:55.208Z,4.97
2017-06-19T16:11:21.607Z,5.43
2017-06-19T16:13:48.027Z,4.90
2017-06-19T16:16:14.450Z,5.00
2017-06-19T16:18:40.866Z,5.15
2017-06-19T16:21:07.328Z,5.40
2017-06-19T16:23:33.725Z,5.10
2017-06-19T16:26:00.233Z,5.47
2017-06-19T16:28:26.608Z,5.03
2017-06-19T16:30:53.031Z,4.60
2017-06-19T16:33:20.184Z,5.33
2017-06-19T16:35:47.325Z,5.47
2017-06-19T16:38:14.478Z,5.20
2017-06-19T16:40:41.791Z,5.67
2017-06-19T16:43:08.199Z,4.40
2017-06-19T16:45:34.655Z,4.20
2017-06-19T16:48:01.082Z,4.50
2017-06-19T16:50:27.468Z,4.50
2017-06-19T16:52:54.615Z,4.80
2017-06-19T16:55:21.022Z,4.82
2017-06-19T16:57:48.182Z,4.10
2017-06-19T17:00:15.359Z,5.45
2017-06-19T17:02:41.783Z,5.37
2017-06-19T17:05:08.905Z,5.07
2017-06-19T17:07:35.297Z,4.82
2017-06-19T17:10:01.720Z,4.78
2017-06-19T17:12:28.143Z,4.85
2017-06-19T17:14:54.527Z,5.15
2017-06-19T17:17:20.944Z,5.20
2017-06-19T17:19:47.318Z,5.03
2017-06-19T17:22:14.469Z,4.75
2017-06-19T17:24:41.598Z,4.70
2017-06-19T17:27:08.766Z,5.18
2017-06-19T17:29:35.182Z,5.32
2017-06-19T17:32:01.577Z,4.87
2017-06-19T17:34:27.994Z,4.68
2017-06-19T17:36:54.427Z,5.20
2017-06-19T17:39:20.815Z,5.18
2017-06-19T17:41:54.069Z,5.00
2017-06-19T17:44:20.485Z,5.80
2017-06-19T17:46:46.915Z,5.25
2017-06-19T17:49:13.343Z,4.65
2017-06-19T17:51:39.728Z,5.00
2017-06-19T17:54:06.889Z,5.07
2017-06-19T17:56:34.046Z,5.30
2017-06-19T17:59:00.434Z,5.40
2017-06-19T18:01:26.898Z,5.90
2017-06-19T18:03:53.323Z,7.93
2017-06-19T18:06:19.748Z,8.10
2017-06-19T18:08:46.172Z,6.20
2017-06-19T18:11:12.558Z,23.97
2017-06-19T18:13:38.936Z,9.10
2017-06-19T18:16:05.349Z,9.83
2017-06-19T18:18:31.743Z,5.83
2017-06-19T18:20:58.165Z,5.70
2017-06-19T18:23:24.681Z,7.10
2017-06-19T18:25:51.112Z,5.93
2017-06-19T18:28:17.531Z,6.90
2017-06-19T18:30:43.911Z,6.10
2017-06-19T18:33:11.086Z,5.73
2017-06-19T18:35:37.496Z,8.13
2017-06-19T18:38:04.041Z,4.90
2017-06-19T18:40:30.539Z,5.60
2017-06-19T18:42:56.964Z,6.50
2017-06-19T18:45:24.120Z,6.20
2017-06-19T18:47:50.549Z,6.90
2017-06-19T18:50:17.149Z,6.40
2017-06-19T18:52:43.622Z,5.67
2017-06-19T18:55:10.797Z,6.00
2017-06-19T18:57:37.940Z,6.33
2017-06-19T19:00:05.127Z,5.77
2017-06-19T19:02:32.037Z,5.93
2017-06-19T19:04:58.591Z,6.10
2017-06-19T19:07:25.069Z,5.80
2017-06-19T19:09:51.625Z,6.03
2017-06-19T19:12:18.815Z,5.93
2017-06-19T19:14:45.301Z,6.00
2017-06-19T19:17:11.738Z,6.27
2017-06-19T19:19:38.247Z,6.13
2017-06-19T19:22:04.678Z,7.20
2017-06-19T19:24:31.316Z,6.97
2017-06-19T19:26:57.859Z,6.80
2017-06-19T19:29:25.231Z,6.70
2017-06-19T19:31:51.827Z,6.40
2017-06-19T19:34:18.263Z,6.70
2017-06-19T19:36:44.902Z,7.17
2017-06-19T19:39:11.272Z,6.40
2017-06-19T19:41:37.889Z,5.70
2017-06-19T19:44:04.322Z,6.63
2017-06-19T19:46:30.758Z,6.47
2017-06-19T19:48:57.337Z,6.40
2017-06-19T19:51:23.847Z,6.93
2017-06-19T19:53:50.249Z,6.47
2017-06-19T19:56:16.627Z,6.50
2017-06-19T19:58:43.775Z,6.70
2017-06-19T20:01:10.166Z,6.83
2017-06-19T20:03:36.574Z,7.00
2017-06-19T20:06:02.951Z,7.00
2017-06-19T20:08:29.366Z,7.80
2017-06-19T20:10:55.736Z,7.00
2017-06-19T20:13:23.626Z,6.67
2017-06-19T20:15:49.996Z,6.50
2017-06-19T20:18:17.366Z,6.80
2017-06-19T20:20:43.759Z,7.20
2017-06-19T20:23:10.196Z,6.63
2017-06-19T20:25:36.626Z,6.10
2017-06-19T20:28:02.986Z,6.80
2017-06-19T20:30:29.698Z,6.43
2017-06-19T20:32:56.186Z,7.70
2017-06-19T20:35:22.566Z,7.53
2017-06-19T20:37:48.934Z,7.03
2017-06-19T20:40:15.314Z,7.17
2017-06-19T20:42:41.710Z,7.50
2017-06-19T20:45:08.829Z,7.43
2017-06-19T20:47:35.210Z,6.77
2017-06-19T20:50:02.367Z,8.00
2017-06-19T20:52:28.771Z,7.47
2017-06-19T20:54:55.890Z,7.30
2017-06-19T20:57:22.360Z,7.57
2017-06-19T20:59:48.722Z,7.53
2017-06-19T21:02:15.090Z,7.50
2017-06-19T21:04:41.479Z,7.77
2017-06-19T21:07:08.177Z,7.67
2017-06-19T21:09:34.619Z,7.73
2017-06-19T21:12:01.750Z,7.70
2017-06-19T21:14:28.925Z,8.50
2017-06-19T21:16:56.049Z,7.57
2017-06-19T21:19:22.431Z,7.80
2017-06-19T21:21:48.818Z,7.87
2017-06-19T21:24:15.193Z,7.87
2017-06-19T21:26:41.580Z,7.83
2017-06-19T21:29:07.952Z,7.90
2017-06-19T21:31:34.322Z,7.20
2017-06-19T21:34:00.690Z,7.03
2017-06-19T21:36:27.086Z,7.87
2017-06-19T21:38:53.455Z,8.10
2017-06-19T21:41:20.594Z,7.63
2017-06-19T21:43:46.982Z,7.47
2017-06-19T21:46:13.339Z,7.50
2017-06-19T21:48:39.713Z,6.23
2017-06-19T21:51:06.816Z,7.80
2017-06-19T21:53:33.235Z,7.30
2017-06-19T21:55:59.667Z,7.70
2017-06-19T21:58:26.031Z,7.87
2017-06-19T22:00:53.162Z,7.93
2017-06-19T22:03:20.358Z,7.90
2017-06-19T22:05:47.481Z,7.83
2017-06-19T22:08:14.614Z,7.30
2017-06-19T22:10:40.990Z,7.87
2017-06-19T22:13:08.088Z,7.07
2017-06-19T22:15:34.494Z,7.17
2017-06-19T22:18:00.862Z,7.90
2017-06-19T22:20:27.265Z,7.30
2017-06-19T22:22:57.745Z,8.30
2017-06-19T22:25:24.131Z,8.50
2017-06-19T22:27:50.482Z,8.37
2017-06-19T22:30:16.879Z,8.20
2017-06-19T22:32:43.257Z,8.03
2017-06-19T22:35:09.626Z,8.20
2017-06-19T22:37:36.006Z,8.40
2017-06-19T22:40:02.402Z,7.60
2017-06-19T22:42:28.785Z,8.10
2017-06-19T22:44:55.139Z,8.53
2017-06-19T22:47:22.270Z,8.37
2017-06-19T22:49:48.629Z,7.90
2017-06-19T22:52:15.066Z,7.70
2017-06-19T22:54:41.434Z,8.40
2017-06-19T22:57:07.791Z,7.47
2017-06-19T22:59:34.170Z,7.43
2017-06-19T23:02:00.542Z,8.57
2017-06-19T23:04:26.958Z,8.50
2017-06-19T23:06:53.310Z,8.70
2017-06-19T23:09:19.712Z,9.77
2017-06-19T23:11:46.133Z,8.57
2017-06-19T23:14:12.521Z,9.13
2017-06-19T23:16:38.887Z,8.80
2017-06-19T23:19:05.252Z,9.07
2017-06-19T23:21:31.669Z,9.10
2017-06-19T23:23:58.062Z,8.33
2017-06-19T23:26:24.448Z,8.63
2017-06-19T23:28:50.856Z,8.80
2017-06-19T23:31:17.267Z,8.10
2017-06-19T23:33:43.642Z,9.63
2017-06-19T23:36:10.012Z,9.17
2017-06-19T23:38:37.140Z,8.63
2017-06-19T23:41:03.512Z,9.53
2017-06-19T23:43:29.903Z,9.60
2017-06-19T23:45:56.272Z,8.80
2017-06-19T23:48:22.667Z,9.73
2017-06-19T23:50:49.038Z,9.07
2017-06-19T23:53:15.436Z,9.60
2017-06-19T23:55:41.792Z,8.97
2017-06-19T23:58:08.191Z,10.40
